sensor_id;sensor_type;location;lat;lon;timestamp;pressure;altitude;pressure_sealevel;temperature;humidity
50710;BME280;37033;49.994;21.992;2023-10-08T00:00:48;98855.11;;;11.24;90.03
50710;BME280;37033;49.994;21.992;2023-10-08T00:03:42;98849.45;;;11.24;90.10
50710;BME280;37033;49.994;21.992;2023-10-08T00:06:19;98842.20;;;11.22;90.32
50710;BME280;37033;49.994;21.992;2023-10-08T00:08:50;98838.48;;;11.21;90.08
50710;BME280;37033;49.994;21.992;2023-10-08T00:11:23;98843.32;;;11.20;90.06
50710;BME280;37033;49.994;21.992;2023-10-08T00:13:54;98840.86;;;11.18;90.00
50710;BME280;37033;49.994;21.992;2023-10-08T00:16:26;98844.02;;;11.19;90.04
50710;BME280;37033;49.994;21.992;2023-10-08T00:18:58;98839.71;;;11.19;90.17
50710;BME280;37033;49.994;21.992;2023-10-08T00:21:32;98841.36;;;11.16;90.12
50710;BME280;37033;49.994;21.992;2023-10-08T00:24:07;98843.14;;;11.14;90.20
50710;BME280;37033;49.994;21.992;2023-10-08T00:26:39;98842.33;;;11.14;90.25
50710;BME280;37033;49.994;21.992;2023-10-08T00:29:10;98839.89;;;11.15;90.31
50710;BME280;37033;49.994;21.992;2023-10-08T00:31:51;98848.23;;;11.15;90.13
50710;BME280;37033;49.994;21.992;2023-10-08T00:34:22;98854.09;;;11.13;90.24
50710;BME280;37033;49.994;21.992;2023-10-08T00:36:54;98857.83;;;11.12;90.45
50710;BME280;37033;49.994;21.992;2023-10-08T00:39:25;98858.66;;;11.09;90.49
50710;BME280;37033;49.994;21.992;2023-10-08T00:41:57;98857.81;;;11.04;90.55
50710;BME280;37033;49.994;21.992;2023-10-08T00:44:28;98863.32;;;11.00;90.57
50710;BME280;37033;49.994;21.992;2023-10-08T00:47:05;98867.70;;;10.96;90.73
50710;BME280;37033;49.994;21.992;2023-10-08T00:49:36;98869.83;;;10.92;90.94
50710;BME280;37033;49.994;21.992;2023-10-08T00:52:23;98873.74;;;10.88;90.92
50710;BME280;37033;49.994;21.992;2023-10-08T00:54:59;98879.77;;;10.86;90.93
50710;BME280;37033;49.994;21.992;2023-10-08T00:57:44;98877.14;;;10.85;90.97
50710;BME280;37033;49.994;21.992;2023-10-08T01:00:18;98877.98;;;10.86;91.01
50710;BME280;37033;49.994;21.992;2023-10-08T01:02:52;98883.52;;;10.87;91.17
50710;BME280;37033;49.994;21.992;2023-10-08T01:05:30;98883.57;;;10.85;91.03
50710;BME280;37033;49.994;21.992;2023-10-08T01:08:16;98878.81;;;10.83;90.96
50710;BME280;37033;49.994;21.992;2023-10-08T01:10:52;98884.59;;;10.85;90.99
50710;BME280;37033;49.994;21.992;2023-10-08T01:13:32;98885.31;;;10.85;91.13
50710;BME280;37033;49.994;21.992;2023-10-08T01:16:14;98886.61;;;10.85;91.19
50710;BME280;37033;49.994;21.992;2023-10-08T01:18:45;98899.29;;;10.86;91.21
50710;BME280;37033;49.994;21.992;2023-10-08T01:21:20;98902.61;;;10.87;91.25
50710;BME280;37033;49.994;21.992;2023-10-08T01:24:04;98902.07;;;10.87;91.27
50710;BME280;37033;49.994;21.992;2023-10-08T01:26:36;98903.10;;;10.86;91.29
50710;BME280;37033;49.994;21.992;2023-10-08T01:29:11;98904.89;;;10.86;91.38
50710;BME280;37033;49.994;21.992;2023-10-08T01:31:48;98898.89;;;10.84;91.39
50710;BME280;37033;49.994;21.992;2023-10-08T01:34:22;98898.41;;;10.85;91.41
50710;BME280;37033;49.994;21.992;2023-10-08T01:36:58;98890.80;;;10.84;91.35
50710;BME280;37033;49.994;21.992;2023-10-08T01:39:39;98880.67;;;10.84;91.51
50710;BME280;37033;49.994;21.992;2023-10-08T01:42:12;98880.05;;;10.81;91.60
50710;BME280;37033;49.994;21.992;2023-10-08T01:44:48;98875.27;;;10.78;91.84
50710;BME280;37033;49.994;21.992;2023-10-08T01:47:20;98876.92;;;10.75;91.89
50710;BME280;37033;49.994;21.992;2023-10-08T01:49:55;98877.66;;;10.72;92.01
50710;BME280;37033;49.994;21.992;2023-10-08T01:52:34;98896.33;;;10.70;92.06
50710;BME280;37033;49.994;21.992;2023-10-08T01:55:08;98904.61;;;10.68;92.28
50710;BME280;37033;49.994;21.992;2023-10-08T01:57:47;98901.20;;;10.63;92.74
50710;BME280;37033;49.994;21.992;2023-10-08T02:00:18;98900.66;;;10.59;92.94
50710;BME280;37033;49.994;21.992;2023-10-08T02:02:50;98900.19;;;10.55;93.30
50710;BME280;37033;49.994;21.992;2023-10-08T02:05:21;98903.02;;;10.51;93.43
50710;BME280;37033;49.994;21.992;2023-10-08T02:07:52;98903.09;;;10.48;93.38
50710;BME280;37033;49.994;21.992;2023-10-08T02:10:24;98898.83;;;10.45;93.44
50710;BME280;37033;49.994;21.992;2023-10-08T02:12:55;98896.50;;;10.43;93.65
50710;BME280;37033;49.994;21.992;2023-10-08T02:15:26;98889.23;;;10.40;93.67
50710;BME280;37033;49.994;21.992;2023-10-08T02:17:56;98894.24;;;10.37;93.62
50710;BME280;37033;49.994;21.992;2023-10-08T02:20:28;98897.33;;;10.35;93.41
50710;BME280;37033;49.994;21.992;2023-10-08T02:22:59;98896.94;;;10.34;93.53
50710;BME280;37033;49.994;21.992;2023-10-08T02:25:30;98896.81;;;10.33;93.59
50710;BME280;37033;49.994;21.992;2023-10-08T02:28:03;98892.17;;;10.30;93.53
50710;BME280;37033;49.994;21.992;2023-10-08T02:30:34;98896.30;;;10.29;93.65
50710;BME280;37033;49.994;21.992;2023-10-08T02:33:06;98900.36;;;10.28;93.53
50710;BME280;37033;49.994;21.992;2023-10-08T02:35:44;98899.74;;;10.28;93.43
50710;BME280;37033;49.994;21.992;2023-10-08T02:38:16;98907.60;;;10.26;93.46
50710;BME280;37033;49.994;21.992;2023-10-08T02:40:48;98913.46;;;10.26;93.62
50710;BME280;37033;49.994;21.992;2023-10-08T02:43:23;98912.77;;;10.26;93.59
50710;BME280;37033;49.994;21.992;2023-10-08T02:45:56;98913.34;;;10.24;93.55
50710;BME280;37033;49.994;21.992;2023-10-08T02:48:29;98915.88;;;10.23;93.79
50710;BME280;37033;49.994;21.992;2023-10-08T02:51:00;98921.84;;;10.22;93.69
50710;BME280;37033;49.994;21.992;2023-10-08T02:53:40;98927.77;;;10.21;93.97
50710;BME280;37033;49.994;21.992;2023-10-08T02:56:13;98924.15;;;10.20;93.75
50710;BME280;37033;49.994;21.992;2023-10-08T02:58:44;98924.53;;;10.20;93.73
50710;BME280;37033;49.994;21.992;2023-10-08T03:01:17;98917.17;;;10.22;93.86
50710;BME280;37033;49.994;21.992;2023-10-08T03:03:49;98917.07;;;10.22;93.94
50710;BME280;37033;49.994;21.992;2023-10-08T03:06:23;98924.42;;;10.24;93.87
50710;BME280;37033;49.994;21.992;2023-10-08T03:08:54;98921.44;;;10.25;93.99
50710;BME280;37033;49.994;21.992;2023-10-08T03:11:25;98926.96;;;10.23;94.00
50710;BME280;37033;49.994;21.992;2023-10-08T03:13:56;98945.38;;;10.20;94.61
50710;BME280;37033;49.994;21.992;2023-10-08T03:16:26;98948.23;;;10.09;94.72
50710;BME280;37033;49.994;21.992;2023-10-08T03:19:03;98943.59;;;9.97;94.93
50710;BME280;37033;49.994;21.992;2023-10-08T03:21:35;98931.77;;;9.87;94.82
50710;BME280;37033;49.994;21.992;2023-10-08T03:24:20;98903.18;;;9.79;94.99
50710;BME280;37033;49.994;21.992;2023-10-08T03:27:07;98906.14;;;9.70;94.84
50710;BME280;37033;49.994;21.992;2023-10-08T03:29:42;98921.00;;;9.69;94.82
50710;BME280;37033;49.994;21.992;2023-10-08T03:32:14;98933.59;;;9.68;94.84
50710;BME280;37033;49.994;21.992;2023-10-08T03:34:47;98945.70;;;9.66;94.78
50710;BME280;37033;49.994;21.992;2023-10-08T03:37:21;98944.70;;;9.64;94.79
50710;BME280;37033;49.994;21.992;2023-10-08T03:39:58;98934.31;;;9.63;94.63
50710;BME280;37033;49.994;21.992;2023-10-08T03:42:57;98935.80;;;9.63;94.62
50710;BME280;37033;49.994;21.992;2023-10-08T03:45:27;98918.13;;;9.65;94.51
50710;BME280;37033;49.994;21.992;2023-10-08T03:48:12;98917.73;;;9.68;94.36
50710;BME280;37033;49.994;21.992;2023-10-08T03:50:44;98903.34;;;9.67;94.29
50710;BME280;37033;49.994;21.992;2023-10-08T03:53:26;98904.88;;;9.69;94.17
50710;BME280;37033;49.994;21.992;2023-10-08T03:56:00;98919.58;;;9.68;94.05
50710;BME280;37033;49.994;21.992;2023-10-08T03:58:35;98925.06;;;9.65;93.89
50710;BME280;37033;49.994;21.992;2023-10-08T04:01:11;98932.20;;;9.63;93.94
50710;BME280;37033;49.994;21.992;2023-10-08T04:03:48;98936.80;;;9.62;94.02
50710;BME280;37033;49.994;21.992;2023-10-08T04:06:29;98926.40;;;9.60;94.04
50710;BME280;37033;49.994;21.992;2023-10-08T04:09:07;98934.16;;;9.57;93.88
50710;BME280;37033;49.994;21.992;2023-10-08T04:11:55;98951.55;;;9.55;93.83
50710;BME280;37033;49.994;21.992;2023-10-08T04:14:33;98962.29;;;9.52;93.87
50710;BME280;37033;49.994;21.992;2023-10-08T04:17:04;98966.25;;;9.48;93.82
50710;BME280;37033;49.994;21.992;2023-10-08T04:19:38;98971.44;;;9.48;93.85
50710;BME280;37033;49.994;21.992;2023-10-08T04:22:09;98973.05;;;9.47;93.90
50710;BME280;37033;49.994;21.992;2023-10-08T04:24:45;98973.79;;;9.45;93.94
50710;BME280;37033;49.994;21.992;2023-10-08T04:27:17;98975.19;;;9.41;94.00
50710;BME280;37033;49.994;21.992;2023-10-08T04:29:51;98997.63;;;9.40;93.98
50710;BME280;37033;49.994;21.992;2023-10-08T04:32:22;99001.04;;;9.37;94.00
50710;BME280;37033;49.994;21.992;2023-10-08T04:34:54;99002.38;;;9.33;94.25
50710;BME280;37033;49.994;21.992;2023-10-08T04:37:26;99010.55;;;9.29;94.49
50710;BME280;37033;49.994;21.992;2023-10-08T04:40:02;99022.84;;;9.25;94.62
50710;BME280;37033;49.994;21.992;2023-10-08T04:42:34;99035.23;;;9.23;94.74
50710;BME280;37033;49.994;21.992;2023-10-08T04:45:08;99040.61;;;9.21;94.97
50710;BME280;37033;49.994;21.992;2023-10-08T04:47:42;99051.67;;;9.18;95.34
50710;BME280;37033;49.994;21.992;2023-10-08T04:50:13;99058.09;;;9.17;95.32
50710;BME280;37033;49.994;21.992;2023-10-08T04:52:47;99055.95;;;9.15;95.30
50710;BME280;37033;49.994;21.992;2023-10-08T04:55:27;99052.14;;;9.14;95.34
50710;BME280;37033;49.994;21.992;2023-10-08T04:57:59;99039.64;;;9.13;95.30
50710;BME280;37033;49.994;21.992;2023-10-08T05:00:33;99040.73;;;9.13;95.15
50710;BME280;37033;49.994;21.992;2023-10-08T05:03:20;99043.88;;;9.14;94.93
50710;BME280;37033;49.994;21.992;2023-10-08T05:05:52;99041.99;;;9.14;94.66
50710;BME280;37033;49.994;21.992;2023-10-08T05:08:37;99045.52;;;9.17;94.56
50710;BME280;37033;49.994;21.992;2023-10-08T05:11:27;99061.48;;;9.19;94.33
50710;BME280;37033;49.994;21.992;2023-10-08T05:14:17;99071.84;;;9.20;94.39
50710;BME280;37033;49.994;21.992;2023-10-08T05:16:57;99074.00;;;9.20;94.11
50710;BME280;37033;49.994;21.992;2023-10-08T05:19:33;99071.13;;;9.20;94.01
50710;BME280;37033;49.994;21.992;2023-10-08T05:22:23;99085.63;;;9.21;93.80
50710;BME280;37033;49.994;21.992;2023-10-08T05:25:13;99109.27;;;9.20;93.81
50710;BME280;37033;49.994;21.992;2023-10-08T05:28:05;99116.71;;;9.18;93.72
50710;BME280;37033;49.994;21.992;2023-10-08T05:30:40;99119.77;;;9.18;93.85
50710;BME280;37033;49.994;21.992;2023-10-08T05:33:22;99107.73;;;9.15;93.75
50710;BME280;37033;49.994;21.992;2023-10-08T05:36:16;99127.79;;;9.14;93.91
50710;BME280;37033;49.994;21.992;2023-10-08T05:38:57;99132.86;;;9.12;93.83
50710;BME280;37033;49.994;21.992;2023-10-08T05:41:33;99141.08;;;9.12;93.79
50710;BME280;37033;49.994;21.992;2023-10-08T05:44:21;99152.86;;;9.12;93.96
50710;BME280;37033;49.994;21.992;2023-10-08T05:47:08;99165.44;;;9.10;93.94
50710;BME280;37033;49.994;21.992;2023-10-08T05:49:58;99167.80;;;9.08;94.22
50710;BME280;37033;49.994;21.992;2023-10-08T05:52:42;99156.15;;;9.07;94.24
50710;BME280;37033;49.994;21.992;2023-10-08T05:55:31;99142.36;;;9.06;94.10
50710;BME280;37033;49.994;21.992;2023-10-08T05:58:10;99146.93;;;9.07;94.11
50710;BME280;37033;49.994;21.992;2023-10-08T06:00:54;99157.23;;;9.09;94.16
50710;BME280;37033;49.994;21.992;2023-10-08T06:03:55;99178.39;;;9.09;94.50
50710;BME280;37033;49.994;21.992;2023-10-08T06:06:49;99181.90;;;9.06;94.36
50710;BME280;37033;49.994;21.992;2023-10-08T06:09:41;99175.70;;;9.05;94.57
50710;BME280;37033;49.994;21.992;2023-10-08T06:12:20;99169.01;;;9.04;94.48
50710;BME280;37033;49.994;21.992;2023-10-08T06:14:59;99179.54;;;9.05;94.56
50710;BME280;37033;49.994;21.992;2023-10-08T06:17:41;99197.66;;;9.05;94.54
50710;BME280;37033;49.994;21.992;2023-10-08T06:20:25;99205.41;;;9.05;94.71
50710;BME280;37033;49.994;21.992;2023-10-08T06:22:56;99210.90;;;9.03;94.79
50710;BME280;37033;49.994;21.992;2023-10-08T06:25:33;99210.01;;;9.02;94.73
50710;BME280;37033;49.994;21.992;2023-10-08T06:28:17;99207.33;;;9.03;94.63
50710;BME280;37033;49.994;21.992;2023-10-08T06:30:50;99206.65;;;9.05;94.89
50710;BME280;37033;49.994;21.992;2023-10-08T06:33:23;99215.69;;;9.06;95.03
50710;BME280;37033;49.994;21.992;2023-10-08T06:36:00;99221.17;;;9.05;95.13
50710;BME280;37033;49.994;21.992;2023-10-08T06:38:32;99232.73;;;9.05;95.17
50710;BME280;37033;49.994;21.992;2023-10-08T06:41:05;99243.55;;;9.04;95.32
50710;BME280;37033;49.994;21.992;2023-10-08T06:43:38;99244.38;;;9.04;95.42
50710;BME280;37033;49.994;21.992;2023-10-08T06:46:12;99247.77;;;9.06;95.55
50710;BME280;37033;49.994;21.992;2023-10-08T06:48:44;99255.23;;;9.04;95.46
50710;BME280;37033;49.994;21.992;2023-10-08T06:51:18;99248.91;;;9.03;95.41
50710;BME280;37033;49.994;21.992;2023-10-08T06:53:49;99256.84;;;9.03;95.24
50710;BME280;37033;49.994;21.992;2023-10-08T06:56:20;99264.07;;;9.04;95.26
50710;BME280;37033;49.994;21.992;2023-10-08T06:58:53;99268.46;;;9.04;95.51
50710;BME280;37033;49.994;21.992;2023-10-08T07:01:24;99273.17;;;9.04;95.58
50710;BME280;37033;49.994;21.992;2023-10-08T07:03:55;99273.81;;;9.03;95.68
50710;BME280;37033;49.994;21.992;2023-10-08T07:06:33;99277.76;;;9.05;95.58
50710;BME280;37033;49.994;21.992;2023-10-08T07:09:07;99289.39;;;9.07;95.59
50710;BME280;37033;49.994;21.992;2023-10-08T07:11:52;99291.23;;;9.09;95.59
50710;BME280;37033;49.994;21.992;2023-10-08T07:14:25;99290.80;;;9.11;95.44
50710;BME280;37033;49.994;21.992;2023-10-08T07:16:58;99291.29;;;9.13;95.32
50710;BME280;37033;49.994;21.992;2023-10-08T07:19:30;99282.05;;;9.15;95.25
50710;BME280;37033;49.994;21.992;2023-10-08T07:22:09;99291.20;;;9.16;95.15
50710;BME280;37033;49.994;21.992;2023-10-08T07:24:51;99299.09;;;9.18;94.79
50710;BME280;37033;49.994;21.992;2023-10-08T07:27:23;99304.50;;;9.21;94.66
50710;BME280;37033;49.994;21.992;2023-10-08T07:29:59;99304.98;;;9.25;94.44
50710;BME280;37033;49.994;21.992;2023-10-08T07:32:32;99308.47;;;9.28;94.31
50710;BME280;37033;49.994;21.992;2023-10-08T07:35:04;99302.31;;;9.32;94.12
50710;BME280;37033;49.994;21.992;2023-10-08T07:37:53;99307.60;;;9.36;94.06
50710;BME280;37033;49.994;21.992;2023-10-08T07:40:26;99308.75;;;9.41;93.99
50710;BME280;37033;49.994;21.992;2023-10-08T07:43:00;99306.00;;;9.46;93.83
50710;BME280;37033;49.994;21.992;2023-10-08T07:45:37;99311.87;;;9.49;93.50
50710;BME280;37033;49.994;21.992;2023-10-08T07:48:09;99317.56;;;9.51;93.11
50710;BME280;37033;49.994;21.992;2023-10-08T07:50:44;99319.16;;;9.52;92.82
50710;BME280;37033;49.994;21.992;2023-10-08T07:53:15;99317.52;;;9.55;92.64
50710;BME280;37033;49.994;21.992;2023-10-08T07:55:48;99316.94;;;9.57;92.64
50710;BME280;37033;49.994;21.992;2023-10-08T07:58:19;99316.04;;;9.61;92.57
50710;BME280;37033;49.994;21.992;2023-10-08T08:00:50;99321.98;;;9.66;92.75
50710;BME280;37033;49.994;21.992;2023-10-08T08:03:24;99330.67;;;9.74;92.50
50710;BME280;37033;49.994;21.992;2023-10-08T08:05:55;99343.27;;;9.79;92.57
50710;BME280;37033;49.994;21.992;2023-10-08T08:08:28;99344.02;;;9.83;91.86
50710;BME280;37033;49.994;21.992;2023-10-08T08:10:58;99348.76;;;9.86;91.76
50710;BME280;37033;49.994;21.992;2023-10-08T08:13:35;99354.96;;;9.92;91.48
50710;BME280;37033;49.994;21.992;2023-10-08T08:16:06;99354.31;;;9.94;91.20
50710;BME280;37033;49.994;21.992;2023-10-08T08:18:51;99362.92;;;9.96;90.65
50710;BME280;37033;49.994;21.992;2023-10-08T08:21:26;99373.23;;;9.93;89.99
50710;BME280;37033;49.994;21.992;2023-10-08T08:24:00;99369.77;;;9.90;89.69
50710;BME280;37033;49.994;21.992;2023-10-08T08:26:35;99375.25;;;9.93;89.49
50710;BME280;37033;49.994;21.992;2023-10-08T08:29:14;99380.61;;;10.00;89.42
50710;BME280;37033;49.994;21.992;2023-10-08T08:31:45;99383.77;;;10.08;89.42
50710;BME280;37033;49.994;21.992;2023-10-08T08:34:15;99384.98;;;10.19;88.95
50710;BME280;37033;49.994;21.992;2023-10-08T08:36:49;99389.58;;;10.28;89.03
50710;BME280;37033;49.994;21.992;2023-10-08T08:39:20;99396.07;;;10.36;88.79
50710;BME280;37033;49.994;21.992;2023-10-08T08:42:03;99392.63;;;10.42;87.54
50710;BME280;37033;49.994;21.992;2023-10-08T08:44:36;99393.80;;;10.47;86.14
50710;BME280;37033;49.994;21.992;2023-10-08T08:47:14;99399.84;;;10.50;85.24
50710;BME280;37033;49.994;21.992;2023-10-08T08:49:47;99404.30;;;10.50;83.47
50710;BME280;37033;49.994;21.992;2023-10-08T08:52:18;99397.63;;;10.50;83.07
50710;BME280;37033;49.994;21.992;2023-10-08T08:54:48;99402.25;;;10.51;83.24
50710;BME280;37033;49.994;21.992;2023-10-08T08:57:21;99406.98;;;10.51;83.32
50710;BME280;37033;49.994;21.992;2023-10-08T08:59:53;99412.63;;;10.50;83.57
50710;BME280;37033;49.994;21.992;2023-10-08T09:02:25;99420.94;;;10.50;82.19
50710;BME280;37033;49.994;21.992;2023-10-08T09:04:57;99427.85;;;10.48;81.75
50710;BME280;37033;49.994;21.992;2023-10-08T09:07:30;99432.55;;;10.46;80.29
50710;BME280;37033;49.994;21.992;2023-10-08T09:10:00;99436.36;;;10.44;78.63
50710;BME280;37033;49.994;21.992;2023-10-08T09:12:33;99435.98;;;10.47;79.05
50710;BME280;37033;49.994;21.992;2023-10-08T09:15:06;99440.43;;;10.52;79.02
50710;BME280;37033;49.994;21.992;2023-10-08T09:17:40;99441.08;;;10.56;78.70
50710;BME280;37033;49.994;21.992;2023-10-08T09:20:11;99443.87;;;10.58;77.10
50710;BME280;37033;49.994;21.992;2023-10-08T09:22:42;99442.70;;;10.64;76.35
50710;BME280;37033;49.994;21.992;2023-10-08T09:25:13;99438.86;;;10.74;74.30
50710;BME280;37033;49.994;21.992;2023-10-08T09:27:51;99429.89;;;10.82;74.23
50710;BME280;37033;49.994;21.992;2023-10-08T09:30:25;99423.05;;;10.95;74.64
50710;BME280;37033;49.994;21.992;2023-10-08T09:32:59;99417.08;;;11.12;75.33
50710;BME280;37033;49.994;21.992;2023-10-08T09:35:32;99416.27;;;11.28;74.70
50710;BME280;37033;49.994;21.992;2023-10-08T09:38:06;99424.48;;;11.37;73.91
50710;BME280;37033;49.994;21.992;2023-10-08T09:40:39;99426.42;;;11.33;71.75
50710;BME280;37033;49.994;21.992;2023-10-08T09:43:11;99426.88;;;11.22;71.96
50710;BME280;37033;49.994;21.992;2023-10-08T09:45:46;99431.58;;;11.16;71.80
50710;BME280;37033;49.994;21.992;2023-10-08T09:48:19;99439.54;;;11.09;70.78
50710;BME280;37033;49.994;21.992;2023-10-08T09:50:52;99437.14;;;11.00;69.79
50710;BME280;37033;49.994;21.992;2023-10-08T09:53:28;99436.73;;;10.93;69.47
50710;BME280;37033;49.994;21.992;2023-10-08T09:56:11;99441.25;;;10.95;70.20
50710;BME280;37033;49.994;21.992;2023-10-08T09:58:44;99442.98;;;11.01;70.02
50710;BME280;37033;49.994;21.992;2023-10-08T10:01:19;99441.42;;;11.08;69.97
50710;BME280;37033;49.994;21.992;2023-10-08T10:03:51;99446.53;;;11.16;68.61
50710;BME280;37033;49.994;21.992;2023-10-08T10:06:23;99449.69;;;11.22;65.51
50710;BME280;37033;49.994;21.992;2023-10-08T10:08:56;99454.27;;;11.29;65.03
50710;BME280;37033;49.994;21.992;2023-10-08T10:11:31;99455.48;;;11.39;63.94
50710;BME280;37033;49.994;21.992;2023-10-08T10:14:04;99449.14;;;11.46;62.92
50710;BME280;37033;49.994;21.992;2023-10-08T10:16:38;99452.54;;;11.55;63.05
50710;BME280;37033;49.994;21.992;2023-10-08T10:19:20;99452.59;;;11.67;61.82
50710;BME280;37033;49.994;21.992;2023-10-08T10:21:53;99456.26;;;11.76;59.53
50710;BME280;37033;49.994;21.992;2023-10-08T10:24:32;99458.17;;;11.79;57.72
50710;BME280;37033;49.994;21.992;2023-10-08T10:27:15;99455.35;;;11.83;57.33
50710;BME280;37033;49.994;21.992;2023-10-08T10:29:47;99446.95;;;11.94;58.48
50710;BME280;37033;49.994;21.992;2023-10-08T10:32:18;99456.19;;;12.08;57.92
50710;BME280;37033;49.994;21.992;2023-10-08T10:34:48;99462.73;;;12.15;56.35
50710;BME280;37033;49.994;21.992;2023-10-08T10:37:21;99460.59;;;12.21;56.44
50710;BME280;37033;49.994;21.992;2023-10-08T10:39:55;99457.52;;;12.28;56.70
50710;BME280;37033;49.994;21.992;2023-10-08T10:42:27;99457.13;;;12.38;55.77
50710;BME280;37033;49.994;21.992;2023-10-08T10:44:58;99454.36;;;12.40;56.29
50710;BME280;37033;49.994;21.992;2023-10-08T10:47:38;99462.73;;;12.45;56.46
50710;BME280;37033;49.994;21.992;2023-10-08T10:50:18;99461.02;;;12.45;56.16
50710;BME280;37033;49.994;21.992;2023-10-08T10:53:01;99475.98;;;12.41;55.88
50710;BME280;37033;49.994;21.992;2023-10-08T10:55:40;99474.69;;;12.35;55.17
50710;BME280;37033;49.994;21.992;2023-10-08T10:58:20;99469.41;;;12.33;56.52
50710;BME280;37033;49.994;21.992;2023-10-08T11:00:54;99472.95;;;12.38;55.97
50710;BME280;37033;49.994;21.992;2023-10-08T11:03:29;99475.84;;;12.39;55.98
50710;BME280;37033;49.994;21.992;2023-10-08T11:06:04;99477.01;;;12.40;56.77
50710;BME280;37033;49.994;21.992;2023-10-08T11:08:44;99479.39;;;12.32;54.63
50710;BME280;37033;49.994;21.992;2023-10-08T11:11:18;99478.42;;;12.14;53.18
50710;BME280;37033;49.994;21.992;2023-10-08T11:13:49;99484.73;;;11.93;52.88
50710;BME280;37033;49.994;21.992;2023-10-08T11:16:25;99484.61;;;11.74;53.47
50710;BME280;37033;49.994;21.992;2023-10-08T11:18:56;99497.12;;;11.59;53.71
50710;BME280;37033;49.994;21.992;2023-10-08T11:21:31;99493.29;;;11.49;54.34
50710;BME280;37033;49.994;21.992;2023-10-08T11:24:04;99493.10;;;11.49;54.70
50710;BME280;37033;49.994;21.992;2023-10-08T11:26:39;99492.41;;;11.58;54.58
50710;BME280;37033;49.994;21.992;2023-10-08T11:29:23;99499.80;;;11.74;53.29
50710;BME280;37033;49.994;21.992;2023-10-08T11:31:55;99487.83;;;11.84;52.79
50710;BME280;37033;49.994;21.992;2023-10-08T11:34:32;99494.31;;;11.90;49.99
50710;BME280;37033;49.994;21.992;2023-10-08T11:37:08;99498.27;;;11.93;48.97
50710;BME280;37033;49.994;21.992;2023-10-08T11:39:50;99502.09;;;11.98;47.65
50710;BME280;37033;49.994;21.992;2023-10-08T11:42:22;99509.07;;;12.02;48.17
50710;BME280;37033;49.994;21.992;2023-10-08T11:45:10;99524.46;;;11.94;45.90
50710;BME280;37033;49.994;21.992;2023-10-08T11:47:54;99516.30;;;11.83;47.07
50710;BME280;37033;49.994;21.992;2023-10-08T11:50:32;99515.21;;;11.83;48.19
50710;BME280;37033;49.994;21.992;2023-10-08T11:53:05;99515.48;;;11.89;49.11
50710;BME280;37033;49.994;21.992;2023-10-08T11:55:36;99525.26;;;11.95;46.52
50710;BME280;37033;49.994;21.992;2023-10-08T11:58:08;99531.44;;;11.94;42.74
50710;BME280;37033;49.994;21.992;2023-10-08T12:00:41;99539.02;;;11.88;41.69
50710;BME280;37033;49.994;21.992;2023-10-08T12:03:15;99536.73;;;11.83;42.21
50710;BME280;37033;49.994;21.992;2023-10-08T12:05:48;99536.23;;;11.83;42.08
50710;BME280;37033;49.994;21.992;2023-10-08T12:08:21;99537.67;;;11.80;42.26
50710;BME280;37033;49.994;21.992;2023-10-08T12:10:52;99529.84;;;11.82;43.61
50710;BME280;37033;49.994;21.992;2023-10-08T12:13:24;99530.93;;;11.88;44.10
50710;BME280;37033;49.994;21.992;2023-10-08T12:15:56;99540.32;;;11.90;44.35
50710;BME280;37033;49.994;21.992;2023-10-08T12:18:35;99537.59;;;11.93;42.60
50710;BME280;37033;49.994;21.992;2023-10-08T12:21:09;99540.52;;;11.89;42.16
50710;BME280;37033;49.994;21.992;2023-10-08T12:23:42;99539.65;;;11.88;42.47
50710;BME280;37033;49.994;21.992;2023-10-08T12:26:15;99546.35;;;11.88;43.39
50710;BME280;37033;49.994;21.992;2023-10-08T12:28:48;99543.43;;;11.89;44.48
50710;BME280;37033;49.994;21.992;2023-10-08T12:31:20;99544.39;;;11.92;44.99
50710;BME280;37033;49.994;21.992;2023-10-08T12:33:52;99551.32;;;12.00;45.78
50710;BME280;37033;49.994;21.992;2023-10-08T12:36:26;99555.30;;;12.03;46.19
50710;BME280;37033;49.994;21.992;2023-10-08T12:39:02;99550.34;;;12.06;45.75
50710;BME280;37033;49.994;21.992;2023-10-08T12:41:39;99553.89;;;12.07;43.66
50710;BME280;37033;49.994;21.992;2023-10-08T12:44:10;99562.05;;;12.07;41.90
50710;BME280;37033;49.994;21.992;2023-10-08T12:46:42;99562.19;;;12.04;41.42
50710;BME280;37033;49.994;21.992;2023-10-08T12:49:13;99558.85;;;12.04;42.09
50710;BME280;37033;49.994;21.992;2023-10-08T12:51:44;99564.02;;;12.09;42.78
50710;BME280;37033;49.994;21.992;2023-10-08T12:54:15;99558.44;;;12.15;42.05
50710;BME280;37033;49.994;21.992;2023-10-08T12:56:51;99567.70;;;12.18;40.23
50710;BME280;37033;49.994;21.992;2023-10-08T12:59:24;99580.77;;;12.14;39.21
50710;BME280;37033;49.994;21.992;2023-10-08T13:01:56;99577.10;;;12.13;39.58
50710;BME280;37033;49.994;21.992;2023-10-08T13:04:27;99577.39;;;12.08;40.20
50710;BME280;37033;49.994;21.992;2023-10-08T13:06:59;99578.11;;;12.05;41.29
50710;BME280;37033;49.994;21.992;2023-10-08T13:09:32;99580.90;;;12.06;41.73
50710;BME280;37033;49.994;21.992;2023-10-08T13:12:06;99582.64;;;11.98;39.71
50710;BME280;37033;49.994;21.992;2023-10-08T13:14:39;99584.69;;;11.87;39.15
50710;BME280;37033;49.994;21.992;2023-10-08T13:17:10;99585.69;;;11.75;37.81
50710;BME280;37033;49.994;21.992;2023-10-08T13:19:41;99580.77;;;11.69;37.82
50710;BME280;37033;49.994;21.992;2023-10-08T13:22:15;99591.02;;;11.67;37.28
50710;BME280;37033;49.994;21.992;2023-10-08T13:24:49;99587.23;;;11.65;38.42
50710;BME280;37033;49.994;21.992;2023-10-08T13:27:20;99586.65;;;11.66;39.05
50710;BME280;37033;49.994;21.992;2023-10-08T13:29:53;99589.81;;;11.63;39.65
50710;BME280;37033;49.994;21.992;2023-10-08T13:32:24;99591.48;;;11.62;40.11
50710;BME280;37033;49.994;21.992;2023-10-08T13:34:56;99595.13;;;11.59;40.63